sensor_id;sensor_type;location;lat;lon;timestamp;temperature;humidity
33717;DHT22;20046;50.746;7.072;2022-12-24T00:02:13;11.10;99.90
33717;DHT22;20046;50.746;7.072;2022-12-24T00:04:39;11.00;99.90
33717;DHT22;20046;50.746;7.072;2022-12-24T00:07:04;11.00;99.90
33717;DHT22;20046;50.746;7.072;2022-12-24T00:09:30;11.00;99.90
33717;DHT22;20046;50.746;7.072;2022-12-24T00:11:56;10.90;99.90
33717;DHT22;20046;50.746;7.072;2022-12-24T00:14:21;10.80;99.90
33717;DHT22;20046;50.746;7.072;2022-12-24T00:16:47;10.80;99.90
33717;DHT22;20046;50.746;7.072;2022-12-24T00:19:12;10.70;99.90
33717;DHT22;20046;50.746;7.072;2022-12-24T00:21:38;10.70;99.90
33717;DHT22;20046;50.746;7.072;2022-12-24T00:24:04;10.60;99.90
33717;DHT22;20046;50.746;7.072;2022-12-24T00:26:31;10.60;99.90
33717;DHT22;20046;50.746;7.072;2022-12-24T00:28:57;10.60;99.90
33717;DHT22;20046;50.746;7.072;2022-12-24T00:31:23;10.60;99.90
33717;DHT22;20046;50.746;7.072;2022-12-24T00:33:49;10.50;99.90
33717;DHT22;20046;50.746;7.072;2022-12-24T00:36:15;10.50;99.90
33717;DHT22;20046;50.746;7.072;2022-12-24T00:38:41;10.60;99.90
33717;DHT22;20046;50.746;7.072;2022-12-24T00:41:08;10.60;99.90
33717;DHT22;20046;50.746;7.072;2022-12-24T00:43:52;10.60;99.90
33717;DHT22;20046;50.746;7.072;2022-12-24T00:46:18;10.70;99.90
33717;DHT22;20046;50.746;7.072;2022-12-24T00:48:44;10.70;99.90
33717;DHT22;20046;50.746;7.072;2022-12-24T00:51:09;10.70;99.90
33717;DHT22;20046;50.746;7.072;2022-12-24T00:53:35;10.80;99.90
33717;DHT22;20046;50.746;7.072;2022-12-24T00:56:00;10.80;99.90
33717;DHT22;20046;50.746;7.072;2022-12-24T00:58:26;10.80;99.90
33717;DHT22;20046;50.746;7.072;2022-12-24T01:00:52;10.80;99.90
33717;DHT22;20046;50.746;7.072;2022-12-24T01:03:17;10.80;99.90
33717;DHT22;20046;50.746;7.072;2022-12-24T01:05:43;10.80;99.90
33717;DHT22;20046;50.746;7.072;2022-12-24T01:08:08;10.90;99.90
33717;DHT22;20046;50.746;7.072;2022-12-24T01:10:34;10.90;99.90
33717;DHT22;20046;50.746;7.072;2022-12-24T01:13:01;10.90;99.90
33717;DHT22;20046;50.746;7.072;2022-12-24T01:15:27;10.80;99.90
33717;DHT22;20046;50.746;7.072;2022-12-24T01:17:53;10.80;99.90
33717;DHT22;20046;50.746;7.072;2022-12-24T01:20:19;10.90;99.90
33717;DHT22;20046;50.746;7.072;2022-12-24T01:22:44;10.80;99.90
33717;DHT22;20046;50.746;7.072;2022-12-24T01:25:10;10.90;99.90
33717;DHT22;20046;50.746;7.072;2022-12-24T01:27:36;10.90;99.90
33717;DHT22;20046;50.746;7.072;2022-12-24T01:30:04;10.90;99.90
33717;DHT22;20046;50.746;7.072;2022-12-24T01:32:30;10.90;99.90
33717;DHT22;20046;50.746;7.072;2022-12-24T01:34:55;11.00;99.90
33717;DHT22;20046;50.746;7.072;2022-12-24T01:37:21;11.00;99.90
33717;DHT22;20046;50.746;7.072;2022-12-24T01:39:47;10.90;99.90
33717;DHT22;20046;50.746;7.072;2022-12-24T01:42:21;10.90;99.90
33717;DHT22;20046;50.746;7.072;2022-12-24T01:47:55;10.90;99.90
33717;DHT22;20046;50.746;7.072;2022-12-24T01:50:21;10.90;99.90
33717;DHT22;20046;50.746;7.072;2022-12-24T01:52:47;10.90;99.90
33717;DHT22;20046;50.746;7.072;2022-12-24T01:55:16;10.90;99.90
33717;DHT22;20046;50.746;7.072;2022-12-24T01:57:47;10.90;99.90
33717;DHT22;20046;50.746;7.072;2022-12-24T02:00:14;10.90;99.90
33717;DHT22;20046;50.746;7.072;2022-12-24T02:02:43;10.90;99.90
33717;DHT22;20046;50.746;7.072;2022-12-24T02:05:24;11.00;99.90
33717;DHT22;20046;50.746;7.072;2022-12-24T02:07:52;10.90;99.90
33717;DHT22;20046;50.746;7.072;2022-12-24T02:10:17;10.90;99.90
33717;DHT22;20046;50.746;7.072;2022-12-24T02:12:44;10.90;99.90
33717;DHT22;20046;50.746;7.072;2022-12-24T02:15:12;10.80;99.90
33717;DHT22;20046;50.746;7.072;2022-12-24T02:18:06;10.70;99.90
33717;DHT22;20046;50.746;7.072;2022-12-24T02:32:42;10.30;99.90
33717;DHT22;20046;50.746;7.072;2022-12-24T02:35:18;10.30;99.90
33717;DHT22;20046;50.746;7.072;2022-12-24T02:37:52;10.30;99.90
33717;DHT22;20046;50.746;7.072;2022-12-24T02:40:26;10.30;99.90
33717;DHT22;20046;50.746;7.072;2022-12-24T02:42:57;10.20;99.90
33717;DHT22;20046;50.746;7.072;2022-12-24T02:45:30;10.20;99.90
33717;DHT22;20046;50.746;7.072;2022-12-24T02:47:57;10.20;99.90
33717;DHT22;20046;50.746;7.072;2022-12-24T02:50:23;10.20;99.90
33717;DHT22;20046;50.746;7.072;2022-12-24T02:52:49;10.20;99.90
33717;DHT22;20046;50.746;7.072;2022-12-24T02:58:21;10.20;99.90
33717;DHT22;20046;50.746;7.072;2022-12-24T03:07:05;10.30;99.90
33717;DHT22;20046;50.746;7.072;2022-12-24T03:12:56;10.40;99.90
33717;DHT22;20046;50.746;7.072;2022-12-24T03:15:23;10.40;99.90
33717;DHT22;20046;50.746;7.072;2022-12-24T03:17:52;10.40;99.90
33717;DHT22;20046;50.746;7.072;2022-12-24T03:20:30;10.40;99.90
33717;DHT22;20046;50.746;7.072;2022-12-24T03:22:58;10.50;99.90
33717;DHT22;20046;50.746;7.072;2022-12-24T03:25:24;10.50;99.90
33717;DHT22;20046;50.746;7.072;2022-12-24T03:27:51;10.50;99.90
33717;DHT22;20046;50.746;7.072;2022-12-24T03:30:17;10.50;99.90
33717;DHT22;20046;50.746;7.072;2022-12-24T03:32:43;10.40;99.90
33717;DHT22;20046;50.746;7.072;2022-12-24T03:35:09;10.40;99.90
33717;DHT22;20046;50.746;7.072;2022-12-24T03:37:35;10.30;99.90
33717;DHT22;20046;50.746;7.072;2022-12-24T03:40:01;10.30;99.90
33717;DHT22;20046;50.746;7.072;2022-12-24T03:42:26;10.30;99.90
33717;DHT22;20046;50.746;7.072;2022-12-24T03:44:52;10.20;99.90
33717;DHT22;20046;50.746;7.072;2022-12-24T03:47:17;10.20;99.90
33717;DHT22;20046;50.746;7.072;2022-12-24T03:49:43;10.10;99.90
33717;DHT22;20046;50.746;7.072;2022-12-24T03:52:08;10.10;99.90
33717;DHT22;20046;50.746;7.072;2022-12-24T03:54:34;10.00;99.90
33717;DHT22;20046;50.746;7.072;2022-12-24T03:56:59;10.00;99.90
33717;DHT22;20046;50.746;7.072;2022-12-24T03:59:25;9.90;99.90
33717;DHT22;20046;50.746;7.072;2022-12-24T04:01:52;9.90;99.90
33717;DHT22;20046;50.746;7.072;2022-12-24T04:04:17;9.80;99.90
33717;DHT22;20046;50.746;7.072;2022-12-24T04:06:43;9.80;99.90
33717;DHT22;20046;50.746;7.072;2022-12-24T04:09:09;9.80;99.90
33717;DHT22;20046;50.746;7.072;2022-12-24T04:11:34;9.80;99.90
33717;DHT22;20046;50.746;7.072;2022-12-24T04:14:00;9.80;99.90
33717;DHT22;20046;50.746;7.072;2022-12-24T04:16:25;9.70;99.90
33717;DHT22;20046;50.746;7.072;2022-12-24T04:18:51;9.70;99.90
33717;DHT22;20046;50.746;7.072;2022-12-24T04:21:16;9.70;99.90
33717;DHT22;20046;50.746;7.072;2022-12-24T04:23:43;9.70;99.90
33717;DHT22;20046;50.746;7.072;2022-12-24T04:26:10;9.70;99.90
33717;DHT22;20046;50.746;7.072;2022-12-24T04:28:37;9.70;99.90
33717;DHT22;20046;50.746;7.072;2022-12-24T04:31:06;9.70;99.90
33717;DHT22;20046;50.746;7.072;2022-12-24T04:33:32;9.70;99.90
33717;DHT22;20046;50.746;7.072;2022-12-24T04:35:59;9.70;99.90
33717;DHT22;20046;50.746;7.072;2022-12-24T04:38:25;9.60;99.90
33717;DHT22;20046;50.746;7.072;2022-12-24T04:43:28;9.60;99.90
33717;DHT22;20046;50.746;7.072;2022-12-24T04:45:54;9.50;99.90
33717;DHT22;20046;50.746;7.072;2022-12-24T04:48:20;9.50;99.90
33717;DHT22;20046;50.746;7.072;2022-12-24T04:50:46;9.40;99.90
33717;DHT22;20046;50.746;7.072;2022-12-24T04:53:11;9.40;99.90
33717;DHT22;20046;50.746;7.072;2022-12-24T04:55:43;9.20;99.90
33717;DHT22;20046;50.746;7.072;2022-12-24T04:58:09;9.20;99.90
33717;DHT22;20046;50.746;7.072;2022-12-24T05:00:35;9.10;99.90
33717;DHT22;20046;50.746;7.072;2022-12-24T05:03:00;9.00;99.90
33717;DHT22;20046;50.746;7.072;2022-12-24T05:05:26;8.90;99.90
33717;DHT22;20046;50.746;7.072;2022-12-24T05:07:51;8.90;99.90
33717;DHT22;20046;50.746;7.072;2022-12-24T05:10:18;8.80;99.90
33717;DHT22;20046;50.746;7.072;2022-12-24T05:12:43;8.80;99.90
33717;DHT22;20046;50.746;7.072;2022-12-24T05:15:09;8.70;99.90
33717;DHT22;20046;50.746;7.072;2022-12-24T05:17:34;8.70;99.90
33717;DHT22;20046;50.746;7.072;2022-12-24T05:20:00;8.70;99.90
33717;DHT22;20046;50.746;7.072;2022-12-24T05:22:26;8.70;99.90
33717;DHT22;20046;50.746;7.072;2022-12-24T05:25:10;8.60;99.90
33717;DHT22;20046;50.746;7.072;2022-12-24T05:27:54;8.70;99.90
33717;DHT22;20046;50.746;7.072;2022-12-24T05:30:20;8.70;99.90
33717;DHT22;20046;50.746;7.072;2022-12-24T05:32:45;8.70;99.90
33717;DHT22;20046;50.746;7.072;2022-12-24T05:35:11;8.70;99.90
33717;DHT22;20046;50.746;7.072;2022-12-24T05:37:37;8.70;99.90
33717;DHT22;20046;50.746;7.072;2022-12-24T05:40:03;8.80;99.90
33717;DHT22;20046;50.746;7.072;2022-12-24T05:42:28;8.80;99.90
33717;DHT22;20046;50.746;7.072;2022-12-24T05:44:54;8.80;99.90
33717;DHT22;20046;50.746;7.072;2022-12-24T05:47:19;8.90;99.90
33717;DHT22;20046;50.746;7.072;2022-12-24T05:49:45;8.90;99.90
33717;DHT22;20046;50.746;7.072;2022-12-24T05:52:11;9.00;99.90
33717;DHT22;20046;50.746;7.072;2022-12-24T05:54:36;9.00;99.90
33717;DHT22;20046;50.746;7.072;2022-12-24T05:57:02;9.10;99.90
33717;DHT22;20046;50.746;7.072;2022-12-24T05:59:28;9.10;99.90
33717;DHT22;20046;50.746;7.072;2022-12-24T06:01:53;9.20;99.90
33717;DHT22;20046;50.746;7.072;2022-12-24T06:04:19;9.20;99.90
33717;DHT22;20046;50.746;7.072;2022-12-24T06:06:44;9.30;99.90
33717;DHT22;20046;50.746;7.072;2022-12-24T06:09:10;9.40;99.90
33717;DHT22;20046;50.746;7.072;2022-12-24T06:11:35;9.50;99.90
33717;DHT22;20046;50.746;7.072;2022-12-24T06:14:01;9.50;99.90
33717;DHT22;20046;50.746;7.072;2022-12-24T06:16:27;9.50;99.90
33717;DHT22;20046;50.746;7.072;2022-12-24T06:18:52;9.50;99.90
33717;DHT22;20046;50.746;7.072;2022-12-24T06:21:18;9.50;99.90
33717;DHT22;20046;50.746;7.072;2022-12-24T06:23:44;9.50;99.90
33717;DHT22;20046;50.746;7.072;2022-12-24T06:26:16;9.50;99.90
33717;DHT22;20046;50.746;7.072;2022-12-24T06:28:43;9.40;99.90
33717;DHT22;20046;50.746;7.072;2022-12-24T06:31:11;9.40;99.90
33717;DHT22;20046;50.746;7.072;2022-12-24T06:33:37;9.40;99.90
33717;DHT22;20046;50.746;7.072;2022-12-24T06:36:06;9.40;99.90
33717;DHT22;20046;50.746;7.072;2022-12-24T06:38:32;9.40;99.90
33717;DHT22;20046;50.746;7.072;2022-12-24T06:40:58;9.40;99.90
33717;DHT22;20046;50.746;7.072;2022-12-24T06:43:23;9.40;99.90
33717;DHT22;20046;50.746;7.072;2022-12-24T06:45:49;9.40;99.90
33717;DHT22;20046;50.746;7.072;2022-12-24T06:48:15;9.50;99.90
33717;DHT22;20046;50.746;7.072;2022-12-24T06:50:41;9.50;99.90
33717;DHT22;20046;50.746;7.072;2022-12-24T06:53:07;9.50;99.90
33717;DHT22;20046;50.746;7.072;2022-12-24T06:55:33;9.50;99.90
33717;DHT22;20046;50.746;7.072;2022-12-24T06:57:59;9.50;99.90
33717;DHT22;20046;50.746;7.072;2022-12-24T07:00:25;9.50;99.90
33717;DHT22;20046;50.746;7.072;2022-12-24T07:02:50;9.50;99.90
33717;DHT22;20046;50.746;7.072;2022-12-24T07:05:16;9.50;99.90
33717;DHT22;20046;50.746;7.072;2022-12-24T07:07:43;9.50;99.90
33717;DHT22;20046;50.746;7.072;2022-12-24T07:10:11;9.50;99.90
33717;DHT22;20046;50.746;7.072;2022-12-24T07:12:37;9.50;99.90
33717;DHT22;20046;50.746;7.072;2022-12-24T07:15:03;9.50;99.90
33717;DHT22;20046;50.746;7.072;2022-12-24T07:17:29;9.40;99.90
33717;DHT22;20046;50.746;7.072;2022-12-24T07:19:54;9.40;99.90
33717;DHT22;20046;50.746;7.072;2022-12-24T07:22:20;9.30;99.90
33717;DHT22;20046;50.746;7.072;2022-12-24T07:24:46;9.30;99.90
33717;DHT22;20046;50.746;7.072;2022-12-24T07:27:11;9.30;99.90
33717;DHT22;20046;50.746;7.072;2022-12-24T07:29:37;9.20;99.90
33717;DHT22;20046;50.746;7.072;2022-12-24T07:32:03;9.20;99.90
33717;DHT22;20046;50.746;7.072;2022-12-24T07:34:29;9.10;99.90
33717;DHT22;20046;50.746;7.072;2022-12-24T07:36:54;9.10;99.90
33717;DHT22;20046;50.746;7.072;2022-12-24T07:39:20;9.00;99.90
33717;DHT22;20046;50.746;7.072;2022-12-24T07:41:45;9.00;99.90
33717;DHT22;20046;50.746;7.072;2022-12-24T07:44:12;9.00;99.90
33717;DHT22;20046;50.746;7.072;2022-12-24T07:46:38;9.00;99.90
33717;DHT22;20046;50.746;7.072;2022-12-24T07:49:04;9.00;99.90
33717;DHT22;20046;50.746;7.072;2022-12-24T07:51:29;9.00;99.90
33717;DHT22;20046;50.746;7.072;2022-12-24T07:53:55;9.00;99.90
33717;DHT22;20046;50.746;7.072;2022-12-24T07:56:21;9.00;99.90
33717;DHT22;20046;50.746;7.072;2022-12-24T07:58:46;9.00;99.90
33717;DHT22;20046;50.746;7.072;2022-12-24T08:01:14;9.00;99.90
33717;DHT22;20046;50.746;7.072;2022-12-24T08:03:39;9.10;99.90
33717;DHT22;20046;50.746;7.072;2022-12-24T08:06:05;9.10;99.90
33717;DHT22;20046;50.746;7.072;2022-12-24T08:08:31;9.20;99.90
33717;DHT22;20046;50.746;7.072;2022-12-24T08:11:00;9.30;99.90
33717;DHT22;20046;50.746;7.072;2022-12-24T08:13:27;9.40;99.90
33717;DHT22;20046;50.746;7.072;2022-12-24T08:15:53;9.50;99.90
33717;DHT22;20046;50.746;7.072;2022-12-24T08:18:18;9.60;99.90
33717;DHT22;20046;50.746;7.072;2022-12-24T08:20:44;9.80;99.90
33717;DHT22;20046;50.746;7.072;2022-12-24T08:23:09;9.90;99.90
33717;DHT22;20046;50.746;7.072;2022-12-24T08:25:35;10.10;99.90
33717;DHT22;20046;50.746;7.072;2022-12-24T08:28:01;10.30;99.90
33717;DHT22;20046;50.746;7.072;2022-12-24T08:30:27;10.60;99.90
33717;DHT22;20046;50.746;7.072;2022-12-24T08:32:52;11.00;99.90
33717;DHT22;20046;50.746;7.072;2022-12-24T08:35:19;11.40;99.90
33717;DHT22;20046;50.746;7.072;2022-12-24T08:37:45;11.70;99.90
33717;DHT22;20046;50.746;7.072;2022-12-24T08:40:11;11.80;99.90
33717;DHT22;20046;50.746;7.072;2022-12-24T08:42:37;11.80;99.90
33717;DHT22;20046;50.746;7.072;2022-12-24T08:45:03;12.00;99.90
33717;DHT22;20046;50.746;7.072;2022-12-24T08:47:28;12.20;99.90
33717;DHT22;20046;50.746;7.072;2022-12-24T08:49:54;12.30;99.90
33717;DHT22;20046;50.746;7.072;2022-12-24T08:52:20;12.50;99.90
33717;DHT22;20046;50.746;7.072;2022-12-24T08:54:45;12.60;99.90
33717;DHT22;20046;50.746;7.072;2022-12-24T08:57:11;12.80;99.90
33717;DHT22;20046;50.746;7.072;2022-12-24T08:59:37;13.30;99.90
33717;DHT22;20046;50.746;7.072;2022-12-24T09:02:03;13.70;99.90
33717;DHT22;20046;50.746;7.072;2022-12-24T09:04:29;13.90;99.90
33717;DHT22;20046;50.746;7.072;2022-12-24T09:06:54;14.10;99.90
33717;DHT22;20046;50.746;7.072;2022-12-24T09:09:20;14.30;99.90
33717;DHT22;20046;50.746;7.072;2022-12-24T09:11:45;14.20;99.90
33717;DHT22;20046;50.746;7.072;2022-12-24T09:14:11;13.80;99.90
33717;DHT22;20046;50.746;7.072;2022-12-24T09:16:36;13.40;99.90
33717;DHT22;20046;50.746;7.072;2022-12-24T09:19:02;13.10;99.90
33717;DHT22;20046;50.746;7.072;2022-12-24T09:21:28;13.00;99.90
33717;DHT22;20046;50.746;7.072;2022-12-24T09:23:53;12.90;99.90
33717;DHT22;20046;50.746;7.072;2022-12-24T09:26:21;12.90;99.90
33717;DHT22;20046;50.746;7.072;2022-12-24T09:28:48;12.90;99.90
33717;DHT22;20046;50.746;7.072;2022-12-24T09:31:15;13.00;99.90
33717;DHT22;20046;50.746;7.072;2022-12-24T09:33:41;13.10;99.90
33717;DHT22;20046;50.746;7.072;2022-12-24T09:36:07;13.00;99.90
33717;DHT22;20046;50.746;7.072;2022-12-24T09:38:34;13.00;99.90
33717;DHT22;20046;50.746;7.072;2022-12-24T09:41:01;13.10;99.90
33717;DHT22;20046;50.746;7.072;2022-12-24T09:43:35;13.30;99.90
33717;DHT22;20046;50.746;7.072;2022-12-24T09:46:07;13.70;99.90
33717;DHT22;20046;50.746;7.072;2022-12-24T09:48:40;13.80;99.90
33717;DHT22;20046;50.746;7.072;2022-12-24T09:51:10;13.80;99.90
33717;DHT22;20046;50.746;7.072;2022-12-24T09:53:51;13.80;99.90
33717;DHT22;20046;50.746;7.072;2022-12-24T09:56:24;13.70;99.90
33717;DHT22;20046;50.746;7.072;2022-12-24T09:58:58;13.60;99.90
33717;DHT22;20046;50.746;7.072;2022-12-24T10:01:24;13.40;99.90
33717;DHT22;20046;50.746;7.072;2022-12-24T10:03:50;13.30;99.90
33717;DHT22;20046;50.746;7.072;2022-12-24T10:11:18;13.00;99.90
33717;DHT22;20046;50.746;7.072;2022-12-24T10:22:33;12.50;99.90
33717;DHT22;20046;50.746;7.072;2022-12-24T10:25:17;12.50;99.90
33717;DHT22;20046;50.746;7.072;2022-12-24T10:27:45;12.50;99.90
33717;DHT22;20046;50.746;7.072;2022-12-24T10:30:16;12.40;99.90
33717;DHT22;20046;50.746;7.072;2022-12-24T10:32:46;12.40;99.90
33717;DHT22;20046;50.746;7.072;2022-12-24T10:37:46;12.40;99.90
33717;DHT22;20046;50.746;7.072;2022-12-24T10:40:42;12.40;99.90
33717;DHT22;20046;50.746;7.072;2022-12-24T10:43:17;12.40;99.90
33717;DHT22;20046;50.746;7.072;2022-12-24T10:45:49;12.50;99.90
33717;DHT22;20046;50.746;7.072;2022-12-24T10:48:29;12.50;99.90
33717;DHT22;20046;50.746;7.072;2022-12-24T10:53:54;12.60;99.90
33717;DHT22;20046;50.746;7.072;2022-12-24T10:56:21;12.60;99.90
33717;DHT22;20046;50.746;7.072;2022-12-24T10:58:53;12.70;99.90
33717;DHT22;20046;50.746;7.072;2022-12-24T11:01:42;12.70;99.90
33717;DHT22;20046;50.746;7.072;2022-12-24T11:04:18;12.60;99.90
33717;DHT22;20046;50.746;7.072;2022-12-24T11:06:56;12.60;99.90
33717;DHT22;20046;50.746;7.072;2022-12-24T11:11:49;12.60;99.90
33717;DHT22;20046;50.746;7.072;2022-12-24T11:14:17;12.60;99.90
33717;DHT22;20046;50.746;7.072;2022-12-24T11:16:53;12.70;99.90
33717;DHT22;20046;50.746;7.072;2022-12-24T11:19:29;12.80;99.90
33717;DHT22;20046;50.746;7.072;2022-12-24T11:22:25;12.90;99.90
33717;DHT22;20046;50.746;7.072;2022-12-24T11:25:17;13.00;99.90
33717;DHT22;20046;50.746;7.072;2022-12-24T11:27:46;13.10;99.90
33717;DHT22;20046;50.746;7.072;2022-12-24T11:32:41;13.90;99.90
33717;DHT22;20046;50.746;7.072;2022-12-24T11:35:16;14.10;99.90
33717;DHT22;20046;50.746;7.072;2022-12-24T11:37:42;14.10;99.90
33717;DHT22;20046;50.746;7.072;2022-12-24T11:40:22;14.00;99.90
33717;DHT22;20046;50.746;7.072;2022-12-24T11:42:49;13.90;99.90
33717;DHT22;20046;50.746;7.072;2022-12-24T11:45:27;13.70;99.90
33717;DHT22;20046;50.746;7.072;2022-12-24T11:47:54;13.50;99.90
33717;DHT22;20046;50.746;7.072;2022-12-24T12:01:02;12.90;99.90
33717;DHT22;20046;50.746;7.072;2022-12-24T12:03:52;12.80;99.90
33717;DHT22;20046;50.746;7.072;2022-12-24T12:06:51;12.80;99.90
33717;DHT22;20046;50.746;7.072;2022-12-24T12:09:26;12.80;99.90
33717;DHT22;20046;50.746;7.072;2022-12-24T12:12:40;12.90;99.90
33717;DHT22;20046;50.746;7.072;2022-12-24T12:15:01;13.00;99.90
33717;DHT22;20046;50.746;7.072;2022-12-24T12:17:39;13.20;99.90
33717;DHT22;20046;50.746;7.072;2022-12-24T12:20:37;13.20;99.90
33717;DHT22;20046;50.746;7.072;2022-12-24T12:28:46;13.20;99.90
33717;DHT22;20046;50.746;7.072;2022-12-24T12:31:36;13.20;99.90
33717;DHT22;20046;50.746;7.072;2022-12-24T12:34:10;13.20;99.90
33717;DHT22;20046;50.746;7.072;2022-12-24T12:36:56;13.10;99.90
33717;DHT22;20046;50.746;7.072;2022-12-24T12:39:23;13.10;99.90
33717;DHT22;20046;50.746;7.072;2022-12-24T12:49:56;13.00;99.90
33717;DHT22;20046;50.746;7.072;2022-12-24T12:55:40;13.70;99.90
33717;DHT22;20046;50.746;7.072;2022-12-24T12:58:31;13.80;99.90
33717;DHT22;20046;50.746;7.072;2022-12-24T13:01:23;14.00;99.90
33717;DHT22;20046;50.746;7.072;2022-12-24T13:07:05;15.00;99.90
33717;DHT22;20046;50.746;7.072;2022-12-24T13:09:55;16.20;99.90
33717;DHT22;20046;50.746;7.072;2022-12-24T13:13:03;17.10;99.90
33717;DHT22;20046;50.746;7.072;2022-12-24T13:15:47;17.80;99.90
33717;DHT22;20046;50.746;7.072;2022-12-24T13:20:57;18.30;99.90
33717;DHT22;20046;50.746;7.072;2022-12-24T13:23:23;18.50;99.90
33717;DHT22;20046;50.746;7.072;2022-12-24T13:25:52;18.70;99.90
33717;DHT22;20046;50.746;7.072;2022-12-24T13:30:48;18.40;99.90
33717;DHT22;20046;50.746;7.072;2022-12-24T13:36:02;16.70;99.90
33717;DHT22;20046;50.746;7.072;2022-12-24T13:40:54;15.20;99.90
33717;DHT22;20046;50.746;7.072;2022-12-24T13:43:20;14.60;99.90
33717;DHT22;20046;50.746;7.072;2022-12-24T13:45:50;14.10;99.90
33717;DHT22;20046;50.746;7.072;2022-12-24T13:48:27;13.80;99.90
33717;DHT22;20046;50.746;7.072;2022-12-24T13:51:17;13.80;99.90
33717;DHT22;20046;50.746;7.072;2022-12-24T13:53:45;13.80;99.90
33717;DHT22;20046;50.746;7.072;2022-12-24T13:58:40;13.80;99.90
33717;DHT22;20046;50.746;7.072;2022-12-24T14:01:12;13.90;99.90
33717;DHT22;20046;50.746;7.072;2022-12-24T14:06:22;13.70;99.90
33717;DHT22;20046;50.746;7.072;2022-12-24T14:08:51;13.60;99.90
33717;DHT22;20046;50.746;7.072;2022-12-24T14:11:21;13.40;99.90
33717;DHT22;20046;50.746;7.072;2022-12-24T14:16:22;13.00;99.90
33717;DHT22;20046;50.746;7.072;2022-12-24T14:21:48;12.70;99.90
33717;DHT22;20046;50.746;7.072;2022-12-24T14:24:19;12.60;99.90
33717;DHT22;20046;50.746;7.072;2022-12-24T14:26:53;12.50;99.90
33717;DHT22;20046;50.746;7.072;2022-12-24T14:29:30;12.40;99.90
33717;DHT22;20046;50.746;7.072;2022-12-24T14:31:58;12.30;99.90
33717;DHT22;20046;50.746;7.072;2022-12-24T14:34:25;12.20;99.90
33717;DHT22;20046;50.746;7.072;2022-12-24T14:36:53;12.00;99.90
33717;DHT22;20046;50.746;7.072;2022-12-24T14:39:33;11.90;99.90
33717;DHT22;20046;50.746;7.072;2022-12-24T14:42:43;11.80;99.90
33717;DHT22;20046;50.746;7.072;2022-12-24T14:53:27;11.50;99.90
33717;DHT22;20046;50.746;7.072;2022-12-24T14:55:58;11.40;99.90
33717;DHT22;20046;50.746;7.072;2022-12-24T14:58:35;11.40;99.90
33717;DHT22;20046;50.746;7.072;2022-12-24T15:01:27;11.30;99.90
33717;DHT22;20046;50.746;7.072;2022-12-24T15:06:42;11.10;99.90
33717;DHT22;20046;50.746;7.072;2022-12-24T15:09:21;11.00;99.90
33717;DHT22;20046;50.746;7.072;2022-12-24T15:11:56;11.00;99.90
33717;DHT22;20046;50.746;7.072;2022-12-24T15:14:24;11.00;99.90
33717;DHT22;20046;50.746;7.072;2022-12-24T15:16:59;10.90;99.90
33717;DHT22;20046;50.746;7.072;2022-12-24T15:19:37;10.90;99.90
33717;DHT22;20046;50.746;7.072;2022-12-24T15:22:08;10.90;99.90
33717;DHT22;20046;50.746;7.072;2022-12-24T15:24:41;10.90;99.90
33717;DHT22;20046;50.746;7.072;2022-12-24T15:27:18;10.80;99.90
33717;DHT22;20046;50.746;7.072;2022-12-24T15:29:46;10.90;99.90
33717;DHT22;20046;50.746;7.072;2022-12-24T15:32:14;10.90;99.90
33717;DHT22;20046;50.746;7.072;2022-12-24T15:34:45;10.90;99.90
33717;DHT22;20046;50.746;7.072;2022-12-24T15:37:17;10.90;99.90
33717;DHT22;20046;50.746;7.072;2022-12-24T15:39:58;10.80;99.90
33717;DHT22;20046;50.746;7.072;2022-12-24T15:42:26;10.80;99.90
33717;DHT22;20046;50.746;7.072;2022-12-24T15:45:06;10.70;99.90
33717;DHT22;20046;50.746;7.072;2022-12-24T15:47:43;10.60;99.90
33717;DHT22;20046;50.746;7.072;2022-12-24T15:50:25;10.60;99.90
33717;DHT22;20046;50.746;7.072;2022-12-24T15:52:53;10.50;99.90
33717;DHT22;20046;50.746;7.072;2022-12-24T15:55:32;10.40;99.90
33717;DHT22;20046;50.746;7.072;2022-12-24T15:57:58;10.30;99.90
33717;DHT22;20046;50.746;7.072;2022-12-24T16:00:27;10.20;99.90
33717;DHT22;20046;50.746;7.072;2022-12-24T16:03:18;10.10;99.90
33717;DHT22;20046;50.746;7.072;2022-12-24T16:05:45;10.00;99.90
33717;DHT22;20046;50.746;7.072;2022-12-24T16:10:41;9.80;99.90
33717;DHT22;20046;50.746;7.072;2022-12-24T16:13:40;9.70;99.90
33717;DHT22;20046;50.746;7.072;2022-12-24T16:16:10;9.60;99.90
33717;DHT22;20046;50.746;7.072;2022-12-24T16:18:53;9.50;99.90
33717;DHT22;20046;50.746;7.072;2022-12-24T16:21:30;9.40;99.90
33717;DHT22;20046;50.746;7.072;2022-12-24T16:24:03;9.30;99.90
33717;DHT22;20046;50.746;7.072;2022-12-24T16:26:30;9.20;99.90
33717;DHT22;20046;50.746;7.072;2022-12-24T16:28:56;9.20;99.90
33717;DHT22;20046;50.746;7.072;2022-12-24T16:31:36;9.10;99.90
33717;DHT22;20046;50.746;7.072;2022-12-24T16:34:03;9.10;99.90
33717;DHT22;20046;50.746;7.072;2022-12-24T16:36:29;9.00;99.90
33717;DHT22;20046;50.746;7.072;2022-12-24T16:38:57;9.00;99.90
33717;DHT22;20046;50.746;7.072;2022-12-24T16:41:41;9.00;99.90
33717;DHT22;20046;50.746;7.072;2022-12-24T16:44:30;9.00;99.90
33717;DHT22;20046;50.746;7.072;2022-12-24T16:46:57;9.00;99.90
33717;DHT22;20046;50.746;7.072;2022-12-24T16:49:24;9.00;99.90
33717;DHT22;20046;50.746;7.072;2022-12-24T16:51:50;9.00;99.90
33717;DHT22;20046;50.746;7.072;2022-12-24T16:54:16;9.00;99.90
33717;DHT22;20046;50.746;7.072;2022-12-24T16:56:43;9.00;99.90
33717;DHT22;20046;50.746;7.072;2022-12-24T17:01:39;9.00;99.90
33717;DHT22;20046;50.746;7.072;2022-12-24T17:04:05;8.90;99.90
33717;DHT22;20046;50.746;7.072;2022-12-24T17:06:31;9.00;99.90
33717;DHT22;20046;50.746;7.072;2022-12-24T17:08:56;9.00;99.90
33717;DHT22;20046;50.746;7.072;2022-12-24T17:11:23;9.00;99.90
33717;DHT22;20046;50.746;7.072;2022-12-24T17:13:48;9.10;99.90
33717;DHT22;20046;50.746;7.072;2022-12-24T17:16:14;9.20;99.90
33717;DHT22;20046;50.746;7.072;2022-12-24T17:18:40;9.20;99.90
33717;DHT22;20046;50.746;7.072;2022-12-24T17:21:05;9.20;99.90
33717;DHT22;20046;50.746;7.072;2022-12-24T17:23:31;9.30;99.90
33717;DHT22;20046;50.746;7.072;2022-12-24T17:25:57;9.20;99.90
33717;DHT22;20046;50.746;7.072;2022-12-24T17:28:23;9.20;99.90
33717;DHT22;20046;50.746;7.072;2022-12-24T17:30:49;9.10;99.90
33717;DHT22;20046;50.746;7.072;2022-12-24T17:33:15;9.00;99.90
33717;DHT22;20046;50.746;7.072;2022-12-24T17:35:41;8.90;99.90
33717;DHT22;20046;50.746;7.072;2022-12-24T17:38:07;8.80;99.90
33717;DHT22;20046;50.746;7.072;2022-12-24T17:40:33;8.80;99.90
33717;DHT22;20046;50.746;7.072;2022-12-24T17:42:58;8.70;99.90
33717;DHT22;20046;50.746;7.072;2022-12-24T17:45:24;8.60;99.90
33717;DHT22;20046;50.746;7.072;2022-12-24T17:47:49;8.60;99.90
33717;DHT22;20046;50.746;7.072;2022-12-24T17:50:15;8.60;99.90
33717;DHT22;20046;50.746;7.072;2022-12-24T17:52:41;8.50;99.90
33717;DHT22;20046;50.746;7.072;2022-12-24T17:55:07;8.50;99.90